sensor_id;sensor_type;location;lat;lon;timestamp;P1;durP1;ratioP1;P2;durP2;ratioP2
7247;SDS011;3665;51.034;13.642;2023-04-29T00:47:11;16.57;;;14.57;;
7247;SDS011;3665;51.034;13.642;2023-04-29T00:51:56;18.60;;;14.87;;
7247;SDS011;3665;51.034;13.642;2023-04-29T01:01:53;13.33;;;11.93;;
7247;SDS011;3665;51.034;13.642;2023-04-29T01:12:00;9.17;;;8.23;;
7247;SDS011;3665;51.034;13.642;2023-04-29T01:17:02;10.13;;;8.67;;
7247;SDS011;3665;51.034;13.642;2023-04-29T01:21:50;8.43;;;7.57;;
7247;SDS011;3665;51.034;13.642;2023-04-29T01:26:39;9.40;;;8.50;;
7247;SDS011;3665;51.034;13.642;2023-04-29T01:31:50;6.83;;;6.03;;
7247;SDS011;3665;51.034;13.642;2023-04-29T01:36:49;6.23;;;5.63;;
7247;SDS011;3665;51.034;13.642;2023-04-29T01:41:52;5.30;;;4.80;;
7247;SDS011;3665;51.034;13.642;2023-04-29T01:46:53;5.57;;;5.07;;
7247;SDS011;3665;51.034;13.642;2023-04-29T01:51:56;4.87;;;4.47;;
7247;SDS011;3665;51.034;13.642;2023-04-29T01:56:45;4.57;;;4.17;;
7247;SDS011;3665;51.034;13.642;2023-04-29T02:07:35;7.57;;;6.73;;
7247;SDS011;3665;51.034;13.642;2023-04-29T02:12:29;8.60;;;7.70;;
7247;SDS011;3665;51.034;13.642;2023-04-29T02:17:33;9.67;;;8.40;;
7247;SDS011;3665;51.034;13.642;2023-04-29T02:22:20;9.00;;;8.10;;
7247;SDS011;3665;51.034;13.642;2023-04-29T02:27:34;8.23;;;7.07;;
7247;SDS011;3665;51.034;13.642;2023-04-29T02:32:34;6.93;;;6.23;;
7247;SDS011;3665;51.034;13.642;2023-04-29T02:37:17;6.10;;;5.50;;
7247;SDS011;3665;51.034;13.642;2023-04-29T02:42:07;5.57;;;5.00;;
7247;SDS011;3665;51.034;13.642;2023-04-29T02:46:52;6.00;;;5.40;;
7247;SDS011;3665;51.034;13.642;2023-04-29T02:51:44;4.80;;;4.27;;
7247;SDS011;3665;51.034;13.642;2023-04-29T02:56:30;5.37;;;4.57;;
7247;SDS011;3665;51.034;13.642;2023-04-29T03:01:17;4.27;;;3.90;;
7247;SDS011;3665;51.034;13.642;2023-04-29T03:06:11;3.80;;;3.47;;
7247;SDS011;3665;51.034;13.642;2023-04-29T03:10:55;3.47;;;2.80;;
7247;SDS011;3665;51.034;13.642;2023-04-29T03:15:41;2.90;;;2.60;;
7247;SDS011;3665;51.034;13.642;2023-04-29T03:20:31;2.50;;;2.30;;
7247;SDS011;3665;51.034;13.642;2023-04-29T03:25:18;2.27;;;1.93;;
7247;SDS011;3665;51.034;13.642;2023-04-29T03:30:06;3.63;;;2.40;;
7247;SDS011;3665;51.034;13.642;2023-04-29T03:35:01;2.57;;;2.37;;
7247;SDS011;3665;51.034;13.642;2023-04-29T03:45:34;2.70;;;2.50;;
7247;SDS011;3665;51.034;13.642;2023-04-29T03:50:23;2.83;;;2.53;;
7247;SDS011;3665;51.034;13.642;2023-04-29T03:55:10;2.90;;;2.70;;
7247;SDS011;3665;51.034;13.642;2023-04-29T04:00:02;3.30;;;3.00;;
7247;SDS011;3665;51.034;13.642;2023-04-29T04:04:54;4.00;;;3.70;;
7247;SDS011;3665;51.034;13.642;2023-04-29T04:42:37;9.67;;;8.77;;
7247;SDS011;3665;51.034;13.642;2023-04-29T05:24:48;16.03;;;14.27;;
7247;SDS011;3665;51.034;13.642;2023-04-29T06:34:24;12.73;;;11.43;;
7247;SDS011;3665;51.034;13.642;2023-04-29T06:40:16;12.50;;;10.67;;
7247;SDS011;3665;51.034;13.642;2023-04-29T06:56:53;13.33;;;11.47;;
7247;SDS011;3665;51.034;13.642;2023-04-29T07:01:49;13.43;;;11.23;;
7247;SDS011;3665;51.034;13.642;2023-04-29T07:06:36;13.27;;;11.87;;
7247;SDS011;3665;51.034;13.642;2023-04-29T07:16:46;13.13;;;11.70;;
7247;SDS011;3665;51.034;13.642;2023-04-29T07:21:29;13.83;;;12.13;;
7247;SDS011;3665;51.034;13.642;2023-04-29T07:26:23;15.03;;;12.73;;
7247;SDS011;3665;51.034;13.642;2023-04-29T07:31:12;13.40;;;11.63;;
7247;SDS011;3665;51.034;13.642;2023-04-29T07:35:56;12.10;;;10.80;;
7247;SDS011;3665;51.034;13.642;2023-04-29T07:40:46;9.90;;;8.90;;
7247;SDS011;3665;51.034;13.642;2023-04-29T07:45:32;8.97;;;7.83;;
7247;SDS011;3665;51.034;13.642;2023-04-29T07:50:57;6.80;;;6.20;;
7247;SDS011;3665;51.034;13.642;2023-04-29T07:55:41;6.57;;;5.97;;
7247;SDS011;3665;51.034;13.642;2023-04-29T08:00:34;7.93;;;7.13;;
7247;SDS011;3665;51.034;13.642;2023-04-29T08:05:25;7.73;;;6.93;;
7247;SDS011;3665;51.034;13.642;2023-04-29T08:10:25;8.33;;;7.50;;
7247;SDS011;3665;51.034;13.642;2023-04-29T08:15:09;8.83;;;7.70;;
7247;SDS011;3665;51.034;13.642;2023-04-29T08:19:56;8.03;;;7.10;;
7247;SDS011;3665;51.034;13.642;2023-04-29T08:24:46;9.70;;;8.40;;
7247;SDS011;3665;51.034;13.642;2023-04-29T08:29:34;9.93;;;8.93;;
7247;SDS011;3665;51.034;13.642;2023-04-29T08:34:21;9.43;;;8.53;;
7247;SDS011;3665;51.034;13.642;2023-04-29T08:39:11;9.67;;;8.67;;
7247;SDS011;3665;51.034;13.642;2023-04-29T08:43:58;11.27;;;10.13;;
7247;SDS011;3665;51.034;13.642;2023-04-29T08:48:46;11.60;;;10.40;;
7247;SDS011;3665;51.034;13.642;2023-04-29T08:53:32;15.03;;;11.03;;
7247;SDS011;3665;51.034;13.642;2023-04-29T08:58:22;11.37;;;10.27;;
7247;SDS011;3665;51.034;13.642;2023-04-29T09:03:13;11.67;;;10.53;;
7247;SDS011;3665;51.034;13.642;2023-04-29T09:13:24;11.27;;;9.77;;
7247;SDS011;3665;51.034;13.642;2023-04-29T09:28:35;9.97;;;7.47;;
7247;SDS011;3665;51.034;13.642;2023-04-29T09:44:05;9.13;;;7.93;;
7247;SDS011;3665;51.034;13.642;2023-04-29T09:49:04;9.80;;;8.17;;
7247;SDS011;3665;51.034;13.642;2023-04-29T09:54:10;9.57;;;8.57;;
7247;SDS011;3665;51.034;13.642;2023-04-29T09:59:14;10.30;;;7.93;;
7247;SDS011;3665;51.034;13.642;2023-04-29T10:04:28;9.40;;;8.40;;
7247;SDS011;3665;51.034;13.642;2023-04-29T10:09:32;8.97;;;8.03;;
7247;SDS011;3665;51.034;13.642;2023-04-29T10:14:25;9.87;;;8.87;;
7247;SDS011;3665;51.034;13.642;2023-04-29T10:19:18;9.70;;;8.83;;
7247;SDS011;3665;51.034;13.642;2023-04-29T10:24:33;11.27;;;10.10;;
7247;SDS011;3665;51.034;13.642;2023-04-29T10:29:19;10.57;;;9.50;;
7247;SDS011;3665;51.034;13.642;2023-04-29T10:34:04;12.30;;;10.50;;
7247;SDS011;3665;51.034;13.642;2023-04-29T10:38:56;11.67;;;10.27;;
7247;SDS011;3665;51.034;13.642;2023-04-29T10:43:42;12.57;;;10.80;;
7247;SDS011;3665;51.034;13.642;2023-04-29T10:48:29;12.17;;;10.87;;
7247;SDS011;3665;51.034;13.642;2023-04-29T10:53:17;10.80;;;9.80;;
7247;SDS011;3665;51.034;13.642;2023-04-29T10:58:20;13.23;;;11.67;;
7247;SDS011;3665;51.034;13.642;2023-04-29T11:08:28;11.40;;;9.40;;
7247;SDS011;3665;51.034;13.642;2023-04-29T11:13:24;12.50;;;11.27;;
7247;SDS011;3665;51.034;13.642;2023-04-29T11:18:27;12.33;;;8.10;;
7247;SDS011;3665;51.034;13.642;2023-04-29T11:23:10;8.37;;;7.67;;
7247;SDS011;3665;51.034;13.642;2023-04-29T11:27:57;8.00;;;7.30;;
7247;SDS011;3665;51.034;13.642;2023-04-29T11:32:48;6.37;;;5.87;;
7247;SDS011;3665;51.034;13.642;2023-04-29T11:37:32;6.33;;;5.83;;
7247;SDS011;3665;51.034;13.642;2023-04-29T11:42:20;6.30;;;5.80;;
7247;SDS011;3665;51.034;13.642;2023-04-29T11:47:09;6.27;;;5.30;;
7247;SDS011;3665;51.034;13.642;2023-04-29T11:51:57;6.43;;;5.27;;
7247;SDS011;3665;51.034;13.642;2023-04-29T11:56:45;6.03;;;5.43;;
7247;SDS011;3665;51.034;13.642;2023-04-29T12:01:32;5.37;;;4.80;;
7247;SDS011;3665;51.034;13.642;2023-04-29T12:06:23;5.60;;;5.10;;
7247;SDS011;3665;51.034;13.642;2023-04-29T12:11:11;6.73;;;6.03;;
7247;SDS011;3665;51.034;13.642;2023-04-29T12:15:59;7.20;;;6.50;;
7247;SDS011;3665;51.034;13.642;2023-04-29T12:20:54;8.53;;;7.40;;
7247;SDS011;3665;51.034;13.642;2023-04-29T12:25:54;9.93;;;8.07;;
7247;SDS011;3665;51.034;13.642;2023-04-29T12:30:54;8.53;;;7.73;;
7247;SDS011;3665;51.034;13.642;2023-04-29T12:35:51;8.37;;;7.53;;
7247;SDS011;3665;51.034;13.642;2023-04-29T12:40:50;7.60;;;6.90;;
7247;SDS011;3665;51.034;13.642;2023-04-29T12:45:34;7.77;;;6.50;;
7247;SDS011;3665;51.034;13.642;2023-04-29T12:50:22;8.10;;;7.30;;
7247;SDS011;3665;51.034;13.642;2023-04-29T12:55:30;8.97;;;7.10;;
7247;SDS011;3665;51.034;13.642;2023-04-29T13:00:33;8.00;;;7.20;;
7247;SDS011;3665;51.034;13.642;2023-04-29T13:05:20;9.17;;;8.30;;
7247;SDS011;3665;51.034;13.642;2023-04-29T13:10:05;9.87;;;8.73;;
7247;SDS011;3665;51.034;13.642;2023-04-29T13:14:53;11.67;;;10.47;;
7247;SDS011;3665;51.034;13.642;2023-04-29T13:19:41;12.30;;;11.10;;
7247;SDS011;3665;51.034;13.642;2023-04-29T13:30:06;12.93;;;11.63;;
7247;SDS011;3665;51.034;13.642;2023-04-29T13:34:52;13.70;;;11.60;;
7247;SDS011;3665;51.034;13.642;2023-04-29T13:39:43;17.53;;;12.67;;
7247;SDS011;3665;51.034;13.642;2023-04-29T13:44:30;15.37;;;12.27;;
7247;SDS011;3665;51.034;13.642;2023-04-29T13:49:32;16.70;;;12.53;;
7247;SDS011;3665;51.034;13.642;2023-04-29T13:54:39;16.03;;;12.50;;
7247;SDS011;3665;51.034;13.642;2023-04-29T13:59:25;15.80;;;13.03;;
7247;SDS011;3665;51.034;13.642;2023-04-29T14:04:30;18.10;;;13.10;;
7247;SDS011;3665;51.034;13.642;2023-04-29T14:09:20;19.10;;;14.13;;
7247;SDS011;3665;51.034;13.642;2023-04-29T14:14:07;17.87;;;14.63;;
7247;SDS011;3665;51.034;13.642;2023-04-29T14:19:10;22.27;;;14.90;;
7247;SDS011;3665;51.034;13.642;2023-04-29T14:23:58;18.20;;;14.40;;
7247;SDS011;3665;51.034;13.642;2023-04-29T14:28:46;17.90;;;14.03;;
7247;SDS011;3665;51.034;13.642;2023-04-29T14:33:33;17.27;;;14.13;;
7247;SDS011;3665;51.034;13.642;2023-04-29T14:38:23;17.97;;;14.80;;
7247;SDS011;3665;51.034;13.642;2023-04-29T14:43:10;16.53;;;13.13;;
7247;SDS011;3665;51.034;13.642;2023-04-29T14:47:57;15.00;;;13.07;;
7247;SDS011;3665;51.034;13.642;2023-04-29T14:52:47;14.43;;;12.70;;
7247;SDS011;3665;51.034;13.642;2023-04-29T14:57:35;15.07;;;12.17;;
7247;SDS011;3665;51.034;13.642;2023-04-29T15:07:24;14.23;;;12.23;;
7247;SDS011;3665;51.034;13.642;2023-04-29T15:12:12;17.80;;;14.33;;
7247;SDS011;3665;51.034;13.642;2023-04-29T15:17:01;16.23;;;14.17;;
7247;SDS011;3665;51.034;13.642;2023-04-29T15:21:51;15.37;;;12.97;;
7247;SDS011;3665;51.034;13.642;2023-04-29T15:26:41;17.60;;;13.70;;
7247;SDS011;3665;51.034;13.642;2023-04-29T15:31:24;17.97;;;13.43;;
7247;SDS011;3665;51.034;13.642;2023-04-29T15:36:11;15.63;;;13.73;;
7247;SDS011;3665;51.034;13.642;2023-04-29T15:41:01;13.90;;;12.43;;
7247;SDS011;3665;51.034;13.642;2023-04-29T15:45:49;15.87;;;13.37;;
7247;SDS011;3665;51.034;13.642;2023-04-29T15:50:38;15.30;;;13.07;;
7247;SDS011;3665;51.034;13.642;2023-04-29T15:55:25;15.33;;;13.30;;
7247;SDS011;3665;51.034;13.642;2023-04-29T16:05:17;15.63;;;13.67;;
7247;SDS011;3665;51.034;13.642;2023-04-29T16:10:06;15.03;;;13.37;;
7247;SDS011;3665;51.034;13.642;2023-04-29T16:14:52;17.03;;;15.23;;
7247;SDS011;3665;51.034;13.642;2023-04-29T16:24:46;15.43;;;13.73;;
7247;SDS011;3665;51.034;13.642;2023-04-29T16:29:33;15.27;;;13.10;;
7247;SDS011;3665;51.034;13.642;2023-04-29T16:34:19;14.40;;;12.57;;
7247;SDS011;3665;51.034;13.642;2023-04-29T16:44:13;15.77;;;13.13;;
7247;SDS011;3665;51.034;13.642;2023-04-29T16:49:07;13.63;;;12.13;;
7247;SDS011;3665;51.034;13.642;2023-04-29T16:54:09;13.27;;;11.97;;
7247;SDS011;3665;51.034;13.642;2023-04-29T16:58:55;13.70;;;12.30;;
7247;SDS011;3665;51.034;13.642;2023-04-29T17:03:40;14.37;;;12.23;;
7247;SDS011;3665;51.034;13.642;2023-04-29T17:08:49;14.20;;;12.73;;
7247;SDS011;3665;51.034;13.642;2023-04-29T17:13:32;13.97;;;12.43;;
7247;SDS011;3665;51.034;13.642;2023-04-29T17:18:21;13.87;;;11.73;;
7247;SDS011;3665;51.034;13.642;2023-04-29T17:23:08;12.80;;;11.40;;
7247;SDS011;3665;51.034;13.642;2023-04-29T17:28:02;15.20;;;12.17;;
7247;SDS011;3665;51.034;13.642;2023-04-29T17:32:46;12.83;;;11.53;;
7247;SDS011;3665;51.034;13.642;2023-04-29T17:37:36;12.50;;;11.20;;
7247;SDS011;3665;51.034;13.642;2023-04-29T17:42:21;14.10;;;11.30;;
7247;SDS011;3665;51.034;13.642;2023-04-29T17:47:11;12.83;;;11.50;;
7247;SDS011;3665;51.034;13.642;2023-04-29T17:52:13;14.20;;;11.97;;
7247;SDS011;3665;51.034;13.642;2023-04-29T17:57:03;12.63;;;11.33;;
7247;SDS011;3665;51.034;13.642;2023-04-29T18:01:50;13.50;;;12.03;;
7247;SDS011;3665;51.034;13.642;2023-04-29T18:06:38;15.53;;;12.60;;
7247;SDS011;3665;51.034;13.642;2023-04-29T18:11:28;14.50;;;13.10;;
7247;SDS011;3665;51.034;13.642;2023-04-29T18:21:37;13.27;;;11.97;;
7247;SDS011;3665;51.034;13.642;2023-04-29T18:26:21;12.97;;;11.57;;
7247;SDS011;3665;51.034;13.642;2023-04-29T18:31:09;14.43;;;12.93;;
7247;SDS011;3665;51.034;13.642;2023-04-29T18:36:00;14.43;;;12.87;;
7247;SDS011;3665;51.034;13.642;2023-04-29T18:45:50;13.80;;;11.90;;
7247;SDS011;3665;51.034;13.642;2023-04-29T18:50:36;13.77;;;12.37;;
7247;SDS011;3665;51.034;13.642;2023-04-29T18:55:24;14.93;;;11.93;;
7247;SDS011;3665;51.034;13.642;2023-04-29T19:10:49;15.00;;;13.50;;
7247;SDS011;3665;51.034;13.642;2023-04-29T19:15:44;13.63;;;12.33;;
7247;SDS011;3665;51.034;13.642;2023-04-29T19:20:31;14.23;;;12.77;;
7247;SDS011;3665;51.034;13.642;2023-04-29T19:25:18;14.33;;;12.80;;
7247;SDS011;3665;51.034;13.642;2023-04-29T19:30:05;13.80;;;12.37;;
7247;SDS011;3665;51.034;13.642;2023-04-29T19:39:56;15.67;;;14.03;;
7247;SDS011;3665;51.034;13.642;2023-04-29T19:44:49;15.93;;;14.33;;
7247;SDS011;3665;51.034;13.642;2023-04-29T19:49:33;16.13;;;14.43;;
7247;SDS011;3665;51.034;13.642;2023-04-29T19:54:23;16.37;;;14.67;;
7247;SDS011;3665;51.034;13.642;2023-04-29T19:59:09;16.47;;;14.67;;
7247;SDS011;3665;51.034;13.642;2023-04-29T20:09:02;14.73;;;13.27;;
7247;SDS011;3665;51.034;13.642;2023-04-29T20:13:59;14.13;;;12.67;;
7247;SDS011;3665;51.034;13.642;2023-04-29T20:18:52;15.03;;;13.43;;
7247;SDS011;3665;51.034;13.642;2023-04-29T20:23:45;14.17;;;12.77;;
7247;SDS011;3665;51.034;13.642;2023-04-29T20:28:29;14.50;;;13.07;;
7247;SDS011;3665;51.034;13.642;2023-04-29T20:33:16;15.03;;;12.47;;
7247;SDS011;3665;51.034;13.642;2023-04-29T20:38:04;13.47;;;12.17;;
7247;SDS011;3665;51.034;13.642;2023-04-29T20:48:12;14.80;;;13.40;;
7247;SDS011;3665;51.034;13.642;2023-04-29T20:53:01;14.77;;;12.93;;
7247;SDS011;3665;51.034;13.642;2023-04-29T20:57:51;14.87;;;13.53;;
7247;SDS011;3665;51.034;13.642;2023-04-29T21:02:38;14.97;;;13.27;;
7247;SDS011;3665;51.034;13.642;2023-04-29T21:07:24;14.40;;;12.90;;
7247;SDS011;3665;51.034;13.642;2023-04-29T21:12:10;14.53;;;13.07;;
7247;SDS011;3665;51.034;13.642;2023-04-29T21:17:02;15.87;;;12.57;;
7247;SDS011;3665;51.034;13.642;2023-04-29T21:22:06;14.27;;;12.87;;
7247;SDS011;3665;51.034;13.642;2023-04-29T21:26:53;15.73;;;13.00;;
7247;SDS011;3665;51.034;13.642;2023-04-29T21:31:46;15.63;;;13.40;;
7247;SDS011;3665;51.034;13.642;2023-04-29T21:36:29;14.83;;;12.80;;
7247;SDS011;3665;51.034;13.642;2023-04-29T21:41:21;15.90;;;13.80;;
7247;SDS011;3665;51.034;13.642;2023-04-29T21:46:13;15.47;;;12.57;;
7247;SDS011;3665;51.034;13.642;2023-04-29T21:51:02;15.43;;;12.97;;
7247;SDS011;3665;51.034;13.642;2023-04-29T21:55:59;15.47;;;13.97;;
7247;SDS011;3665;51.034;13.642;2023-04-29T22:00:46;15.50;;;13.83;;
7247;SDS011;3665;51.034;13.642;2023-04-29T22:05:50;16.17;;;14.43;;
7247;SDS011;3665;51.034;13.642;2023-04-29T22:10:37;16.10;;;14.30;;
7247;SDS011;3665;51.034;13.642;2023-04-29T22:15:25;16.10;;;13.83;;
7247;SDS011;3665;51.034;13.642;2023-04-29T22:25:50;15.67;;;13.90;;
7247;SDS011;3665;51.034;13.642;2023-04-29T22:30:37;15.73;;;14.03;;
7247;SDS011;3665;51.034;13.642;2023-04-29T22:35:26;17.37;;;14.33;;
7247;SDS011;3665;51.034;13.642;2023-04-29T22:40:16;17.33;;;14.20;;
7247;SDS011;3665;51.034;13.642;2023-04-29T22:45:00;17.63;;;15.43;;
7247;SDS011;3665;51.034;13.642;2023-04-29T22:49:50;15.43;;;13.50;;
7247;SDS011;3665;51.034;13.642;2023-04-29T22:54:37;16.97;;;14.40;;
7247;SDS011;3665;51.034;13.642;2023-04-29T23:04:39;16.63;;;14.87;;
7247;SDS011;3665;51.034;13.642;2023-04-29T23:09:35;17.07;;;14.27;;
7247;SDS011;3665;51.034;13.642;2023-04-29T23:14:20;16.83;;;15.00;;
7247;SDS011;3665;51.034;13.642;2023-04-29T23:19:13;14.70;;;13.20;;
7247;SDS011;3665;51.034;13.642;2023-04-29T23:23:57;16.83;;;14.37;;
7247;SDS011;3665;51.034;13.642;2023-04-29T23:28:46;15.57;;;13.90;;
7247;SDS011;3665;51.034;13.642;2023-04-29T23:33:35;16.43;;;14.63;;
7247;SDS011;3665;51.034;13.642;2023-04-29T23:43:27;17.50;;;14.00;;
7247;SDS011;3665;51.034;13.642;2023-04-29T23:48:12;15.77;;;14.13;;
7247;SDS011;3665;51.034;13.642;2023-04-29T23:52:58;15.47;;;13.87;;
7247;SDS011;3665;51.034;13.642;2023-04-29T23:57:48;17.23;;;14.07;;
